Mijn Webcam  Mijn Webcam


webcam richting noord-oost  webcam facing north-east


Regen radar Meer informatie rain snow radar


Bezoek onze andere website:

Template documentation
and downloads

HWS Template - cumulus versie

And another site



METAR rapporten vliegvelden

   
EHGG - Groningen/Eelde, Netherlands
Afstand tot: Z 20 km
Gewijzigd: 15-04-2021 04:55
Freezing, Mist, Licht bewolkt  
Freezing, Mist, Licht bewolkt  
   Wind: NO 3.7 km/h
Wind: NO 3.7 km/h
Temperatuur: -3°C
Dauwpunt: -3°C
Vochtigheid: 100%
Barometer: 1030 hPa
Bewolking: Licht bewolkt
Zicht: 1 km
Bewolking: Licht bewolkt 1066.8 m
EHGG 150255Z AUTO 04002KT 1100 R05/0900D FZFG FEW035 M03/M03 Q1030 NOSIG
EHMA - Awg-1 Sea, Netherlands
Afstand tot: WNW 45 km
Gewijzigd: 15-04-2021 04:55
Licht bewolkt  
Licht bewolkt  
   Wind: NO 16.7 km/h
Wind: NO 16.7 km/h
Temperatuur: 5°C
Voelt als: 2°C
Dauwpunt: 0°C
Vochtigheid: 70%
Barometer: 1030 hPa
Bewolking: Licht bewolkt
Zicht: meer dan 10 km
Bewolking: Licht bewolkt 609.6 m
EHMA 150255Z AUTO 04009KT 9999 FEW020 05/00 Q1030
 

Script ontwikkeld door  Saratoga-weather.org Aangepast voor de template door  Weerstation Leuven

U vindt ons ook hier:

Het Weer Aktueel

UK Metoffice

European Weather Network

WeatherCloud

Weather Underground

Benelux Weer Netwerk

AWEKAS

WeatherlinkIP

HAMweather, WeatherForYou, PWS Weather

Apparatuur in gebruik:

Weerstation
Davis VP2

Weerprogramma
Cumulus

Davis VP2

Cumulus